createdAt,value
2019-04-26T00:00:54.982Z,41.72
2019-04-26T00:03:02.405Z,41.92
2019-04-26T00:05:07.812Z,42.13
2019-04-26T00:07:12.764Z,42.21
2019-04-26T00:09:38.606Z,42.12
2019-04-26T00:11:59.215Z,42.05
2019-04-26T00:14:31.172Z,42.12
2019-04-26T00:16:43.834Z,42.08
2019-04-26T00:18:47.892Z,42.33
2019-04-26T00:20:51.877Z,42.61
2019-04-26T00:22:55.806Z,42.78
2019-04-26T00:24:59.721Z,42.96
2019-04-26T00:27:03.636Z,43.14
2019-04-26T00:29:07.471Z,43.07
2019-04-26T00:31:12.869Z,43.06
2019-04-26T00:33:17.731Z,43.07
2019-04-26T00:35:22.635Z,43.06
2019-04-26T00:37:26.473Z,43.11
2019-04-26T00:39:30.267Z,43.44
2019-04-26T00:41:34.235Z,43.56
2019-04-26T00:43:38.644Z,43.55
2019-04-26T00:45:45.908Z,43.54
2019-04-26T00:47:51.760Z,43.67
2019-04-26T00:49:56.264Z,43.71
2019-04-26T00:52:00.494Z,43.85
2019-04-26T00:54:06.858Z,43.87
2019-04-26T00:56:12.396Z,44.18
2019-04-26T00:58:18.458Z,44.40
2019-04-26T01:00:23.731Z,44.45
2019-04-26T01:02:34.383Z,44.29
2019-04-26T01:04:38.195Z,44.43
2019-04-26T01:06:43.670Z,44.46
2019-04-26T01:08:47.419Z,44.37
2019-04-26T01:10:51.218Z,44.33
2019-04-26T01:12:55.027Z,44.40
2019-04-26T01:14:58.816Z,44.38
2019-04-26T01:17:03.541Z,44.45
2019-04-26T01:19:11.055Z,44.45
2019-04-26T01:21:19.170Z,44.44
2019-04-26T01:23:25.333Z,44.63
2019-04-26T01:25:46.137Z,44.85
2019-04-26T01:27:50.348Z,45.02
2019-04-26T01:29:57.382Z,45.09
2019-04-26T01:32:07.383Z,45.29
2019-04-26T01:34:11.538Z,45.38
2019-04-26T01:36:16.640Z,45.39
2019-04-26T01:38:21.812Z,45.69
2019-04-26T01:40:29.311Z,45.67
2019-04-26T01:43:08.062Z,45.68
2019-04-26T01:45:34.048Z,46.10
2019-04-26T01:47:39.020Z,46.29
2019-04-26T01:49:44.274Z,46.58
2019-04-26T01:52:03.028Z,46.56
2019-04-26T01:54:08.726Z,46.51
2019-04-26T01:56:13.321Z,46.58
2019-04-26T01:58:17.295Z,46.65
2019-04-26T02:00:41.567Z,46.65
2019-04-26T02:02:54.028Z,46.68
2019-04-26T02:05:00.503Z,46.63
2019-04-26T02:07:05.037Z,46.62
2019-04-26T02:09:11.442Z,46.78
2019-04-26T02:11:15.462Z,46.65
2019-04-26T02:13:20.522Z,46.61
2019-04-26T02:15:27.585Z,46.83
2019-04-26T02:17:33.596Z,46.83
2019-04-26T02:19:37.798Z,46.84
2019-04-26T02:21:52.935Z,46.92
2019-04-26T02:24:04.658Z,47.15
2019-04-26T02:26:27.034Z,47.39
2019-04-26T02:28:30.901Z,47.41
2019-04-26T02:30:36.718Z,47.32
2019-04-26T02:32:41.126Z,47.40
2019-04-26T02:34:46.180Z,48.00
2019-04-26T02:36:57.719Z,48.39
2019-04-26T02:38:59.696Z,48.73
2019-04-26T02:41:03.618Z,48.89
2019-04-26T02:43:09.547Z,48.86
2019-04-26T02:46:06.153Z,48.83
2019-04-26T02:48:21.689Z,48.75
2019-04-26T02:50:33.275Z,48.59
2019-04-26T02:52:47.270Z,48.49
2019-04-26T02:55:04.670Z,48.35
2019-04-26T02:57:08.851Z,48.20
2019-04-26T02:59:42.573Z,48.06
2019-04-26T03:01:48.417Z,48.13
2019-04-26T03:03:53.712Z,48.09
2019-04-26T03:05:58.757Z,48.32
2019-04-26T03:08:16.500Z,48.35
2019-04-26T03:10:24.614Z,48.42
2019-04-26T03:12:34.428Z,48.47
2019-04-26T03:15:13.463Z,48.55
2019-04-26T03:17:43.051Z,48.58
2019-04-26T03:19:57.314Z,48.59
2019-04-26T03:22:40.840Z,48.64
2019-04-26T03:24:56.242Z,48.84
2019-04-26T03:27:27.920Z,48.78
2019-04-26T03:29:43.758Z,48.90
2019-04-26T03:32:08.540Z,48.93
2019-04-26T03:34:53.131Z,49.06
2019-04-26T03:37:36.646Z,48.94
2019-04-26T03:39:56.465Z,49.05
2019-04-26T03:42:16.380Z,49.24
2019-04-26T03:44:33.051Z,49.32
2019-04-26T03:46:55.038Z,49.46
2019-04-26T03:49:44.183Z,49.51
2019-04-26T03:52:13.508Z,49.57
2019-04-26T03:54:21.701Z,49.54
2019-04-26T03:56:43.571Z,49.59
2019-04-26T03:59:30.266Z,49.71
2019-04-26T04:01:43.204Z,49.81
2019-04-26T04:03:56.644Z,49.71
2019-04-26T04:06:04.748Z,49.80
2019-04-26T04:08:13.011Z,49.79
2019-04-26T04:10:22.229Z,49.89
2019-04-26T04:12:44.479Z,50.03
2019-04-26T04:15:06.178Z,50.12
2019-04-26T04:17:27.468Z,50.16
2019-04-26T04:20:21.719Z,50.23
2019-04-26T04:22:29.168Z,50.40
2019-04-26T04:24:56.335Z,50.57
2019-04-26T04:27:11.324Z,50.70
2019-04-26T04:29:53.447Z,50.94
2019-04-26T04:31:57.058Z,51.03
2019-04-26T04:34:27.261Z,51.01
2019-04-26T04:36:42.190Z,51.11
2019-04-26T04:39:12.450Z,51.24
2019-04-26T04:41:27.881Z,51.35
2019-04-26T04:43:41.952Z,51.38
2019-04-26T04:46:33.379Z,51.41
2019-04-26T04:48:51.319Z,51.39
2019-04-26T04:51:09.869Z,51.41
2019-04-26T04:53:30.857Z,51.38
2019-04-26T04:55:52.110Z,51.47
2019-04-26T04:58:09.711Z,51.74
2019-04-26T05:00:51.763Z,52.06
2019-04-26T05:03:30.773Z,52.47
2019-04-26T05:06:10.744Z,52.64
2019-04-26T05:08:49.682Z,52.98
2019-04-26T05:11:06.934Z,53.13
2019-04-26T05:13:48.389Z,53.05
2019-04-26T05:16:16.838Z,53.00
2019-04-26T05:18:35.514Z,53.21
2019-04-26T05:21:12.329Z,53.60
2019-04-26T05:23:47.144Z,53.98
2019-04-26T05:26:30.445Z,53.93
2019-04-26T05:29:08.843Z,53.71
2019-04-26T05:31:59.911Z,53.66
2019-04-26T05:34:20.015Z,53.63
2019-04-26T05:36:47.765Z,53.43
2019-04-26T05:39:15.686Z,53.32
2019-04-26T05:41:59.936Z,53.36
2019-04-26T05:44:23.892Z,53.21
2019-04-26T05:47:26.271Z,53.05
2019-04-26T05:50:28.351Z,53.05
2019-04-26T05:53:27.198Z,53.00
2019-04-26T05:56:14.808Z,52.98
2019-04-26T05:58:44.481Z,52.91
2019-04-26T06:01:52.098Z,52.93
2019-04-26T06:04:46.709Z,52.89
2019-04-26T06:07:07.795Z,52.73
2019-04-26T06:09:50.356Z,52.66
2019-04-26T06:12:16.720Z,52.70
2019-04-26T06:14:48.932Z,52.73
2019-04-26T06:17:38.562Z,52.81
2019-04-26T06:20:05.465Z,52.79
2019-04-26T06:22:27.631Z,52.92
2019-04-26T06:25:10.365Z,52.83
2019-04-26T06:27:39.993Z,53.07
2019-04-26T06:29:56.798Z,53.07
2019-04-26T06:32:10.641Z,52.85
2019-04-26T06:34:34.507Z,52.91
2019-04-26T06:36:57.587Z,52.96
2019-04-26T06:39:30.196Z,52.85
2019-04-26T06:42:13.942Z,52.85
2019-04-26T06:44:23.545Z,52.81
2019-04-26T06:47:16.981Z,52.72
2019-04-26T06:50:15.053Z,52.74
2019-04-26T06:52:22.570Z,52.62
2019-04-26T06:54:40.791Z,52.33
2019-04-26T06:57:24.829Z,51.96
2019-04-26T06:59:59.183Z,51.75
2019-04-26T07:02:11.420Z,51.79
2019-04-26T07:04:26.404Z,51.58
2019-04-26T07:06:35.507Z,51.43
2019-04-26T07:08:57.722Z,51.42
2019-04-26T07:11:46.594Z,51.26
2019-04-26T07:14:36.750Z,51.18
2019-04-26T07:17:00.750Z,51.14
2019-04-26T07:19:21.397Z,50.99
2019-04-26T07:21:42.037Z,50.90
2019-04-26T07:24:36.244Z,50.69
2019-04-26T07:27:18.216Z,50.55
2019-04-26T07:29:57.557Z,50.52
2019-04-26T07:32:15.063Z,50.60
2019-04-26T07:34:43.315Z,50.69
2019-04-26T07:37:25.358Z,50.73
2019-04-26T07:39:52.979Z,50.79
2019-04-26T07:42:20.718Z,51.20
2019-04-26T07:44:41.023Z,51.14
2019-04-26T07:47:15.447Z,50.98
2019-04-26T07:49:52.118Z,50.77
2019-04-26T07:52:37.537Z,50.63
2019-04-26T07:55:20.982Z,50.48
2019-04-26T07:57:55.306Z,50.21
2019-04-26T08:00:18.991Z,50.06
2019-04-26T08:03:02.068Z,49.95
2019-04-26T08:05:17.891Z,49.90
2019-04-26T08:07:32.170Z,49.85
2019-04-26T08:09:39.011Z,49.58
2019-04-26T08:11:54.316Z,49.53
2019-04-26T08:14:12.624Z,49.42
2019-04-26T08:16:29.071Z,49.47
2019-04-26T08:18:40.758Z,49.45
2019-04-26T08:20:52.760Z,49.33
2019-04-26T08:23:02.739Z,49.33
2019-04-26T08:25:10.422Z,49.37
2019-04-26T08:27:23.694Z,49.51
2019-04-26T08:29:29.830Z,49.56
2019-04-26T08:31:37.730Z,49.55
2019-04-26T08:33:48.861Z,49.57
2019-04-26T08:35:56.373Z,49.69
2019-04-26T08:38:18.941Z,49.82
2019-04-26T08:40:26.535Z,49.71
2019-04-26T08:42:26.282Z,49.80
2019-04-26T08:44:59.737Z,49.81
2019-04-26T08:47:26.313Z,49.96
2019-04-26T08:50:04.118Z,50.02
2019-04-26T08:52:14.686Z,50.11
2019-04-26T08:54:22.330Z,50.19
2019-04-26T08:56:32.334Z,50.22
2019-04-26T08:58:40.238Z,50.40
2019-04-26T09:01:00.524Z,50.45
2019-04-26T09:03:15.265Z,50.45
2019-04-26T09:05:35.261Z,50.61
2019-04-26T09:07:42.578Z,50.63
2019-04-26T09:09:57.239Z,50.52
2019-04-26T09:11:59.841Z,50.54
2019-04-26T09:14:05.812Z,50.71
2019-04-26T09:16:16.025Z,50.75
2019-04-26T09:18:19.856Z,50.74
2019-04-26T09:20:29.524Z,50.64
2019-04-26T09:23:03.941Z,50.60
2019-04-26T09:25:18.864Z,50.61
2019-04-26T09:27:32.537Z,50.72
2019-04-26T09:29:49.043Z,50.67
2019-04-26T09:31:56.221Z,50.60
2019-04-26T09:34:06.361Z,50.51
2019-04-26T09:36:09.969Z,50.63
2019-04-26T09:38:13.754Z,50.79
2019-04-26T09:40:21.523Z,50.81
2019-04-26T09:42:46.982Z,50.85
2019-04-26T09:45:16.831Z,50.91
2019-04-26T09:47:47.906Z,51.17
2019-04-26T09:50:06.159Z,51.28
2019-04-26T09:52:16.027Z,51.39
2019-04-26T09:54:19.807Z,51.47
2019-04-26T09:56:23.615Z,51.30
2019-04-26T09:58:30.721Z,51.33
2019-04-26T10:00:34.141Z,51.39
2019-04-26T10:02:37.877Z,51.30
2019-04-26T10:04:41.684Z,51.32
2019-04-26T10:06:45.498Z,51.40
2019-04-26T10:08:52.424Z,51.46
2019-04-26T10:10:55.896Z,51.52
2019-04-26T10:13:06.063Z,51.53
2019-04-26T10:15:22.531Z,51.69
2019-04-26T10:17:32.189Z,51.71
2019-04-26T10:19:55.547Z,51.94
2019-04-26T10:22:01.130Z,51.98
2019-04-26T10:24:08.487Z,52.27
2019-04-26T10:26:12.454Z,52.33
2019-04-26T10:28:17.111Z,52.27
2019-04-26T10:30:22.049Z,52.28
2019-04-26T10:32:27.931Z,52.51
2019-04-26T10:34:31.746Z,52.69
2019-04-26T10:36:35.571Z,52.64
2019-04-26T10:38:39.364Z,52.63
2019-04-26T10:40:44.084Z,52.64
2019-04-26T10:42:47.923Z,52.63
2019-04-26T10:44:51.768Z,52.79
2019-04-26T10:46:55.983Z,53.02
2019-04-26T10:49:08.560Z,53.06
2019-04-26T10:51:07.269Z,52.98
2019-04-26T10:53:19.665Z,53.03
2019-04-26T10:55:38.249Z,53.02
2019-04-26T10:57:44.686Z,52.98
2019-04-26T10:59:59.403Z,53.05
2019-04-26T11:02:05.201Z,53.02
2019-04-26T11:04:09.955Z,53.24
2019-04-26T11:06:14.747Z,53.15
2019-04-26T11:08:18.488Z,53.07
2019-04-26T11:10:24.458Z,53.51
2019-04-26T11:12:28.485Z,53.60
2019-04-26T11:14:32.238Z,53.39
2019-04-26T11:16:41.261Z,53.34
2019-04-26T11:18:44.991Z,53.35
2019-04-26T11:20:49.788Z,53.42
2019-04-26T11:22:53.839Z,53.44
2019-04-26T11:24:57.679Z,53.52
2019-04-26T11:27:01.556Z,53.44
2019-04-26T11:29:07.384Z,53.22
2019-04-26T11:31:11.238Z,53.33
2019-04-26T11:33:14.984Z,53.30
2019-04-26T11:35:18.877Z,53.13
2019-04-26T11:37:23.711Z,53.02
2019-04-26T11:39:28.232Z,52.95
2019-04-26T11:41:34.037Z,53.23
2019-04-26T11:43:38.572Z,53.16
2019-04-26T11:45:45.384Z,53.37
2019-04-26T11:47:56.024Z,53.69
2019-04-26T11:49:55.276Z,53.54
2019-04-26T11:52:02.920Z,53.62
2019-04-26T11:54:05.753Z,53.50
2019-04-26T11:56:09.639Z,53.53
2019-04-26T11:58:13.415Z,53.53
2019-04-26T12:00:27.900Z,53.44
2019-04-26T12:02:36.705Z,53.32
2019-04-26T12:04:59.580Z,53.22
2019-04-26T12:07:25.384Z,53.19
2019-04-26T12:09:37.130Z,53.15
2019-04-26T12:11:49.375Z,53.09
2019-04-26T12:13:46.622Z,53.13
2019-04-26T12:15:50.398Z,52.94
2019-04-26T12:17:58.675Z,52.76
2019-04-26T12:20:00.738Z,52.71
2019-04-26T12:22:08.464Z,52.82
2019-04-26T12:24:10.224Z,52.73
2019-04-26T12:26:17.457Z,52.85
2019-04-26T12:28:19.571Z,52.98
2019-04-26T12:30:26.587Z,52.93
2019-04-26T12:32:28.919Z,53.01
2019-04-26T12:34:33.748Z,52.92
2019-04-26T12:36:37.464Z,52.96
2019-04-26T12:38:41.243Z,52.96
2019-04-26T12:40:46.113Z,52.90
2019-04-26T12:42:50.573Z,53.08
2019-04-26T12:45:02.107Z,53.22
2019-04-26T12:47:19.476Z,53.33
2019-04-26T12:49:24.233Z,53.31
2019-04-26T12:51:28.914Z,53.43
2019-04-26T12:53:33.001Z,53.80
2019-04-26T12:55:37.846Z,53.92
2019-04-26T12:57:42.442Z,54.05
2019-04-26T12:59:46.311Z,54.09
2019-04-26T13:01:51.177Z,54.26
2019-04-26T13:04:06.860Z,54.43
2019-04-26T13:06:10.759Z,54.36
2019-04-26T13:08:16.906Z,54.52
2019-04-26T13:10:46.916Z,54.59
2019-04-26T13:13:15.593Z,54.71
2019-04-26T13:16:21.537Z,54.83
2019-04-26T13:18:23.395Z,54.99
2019-04-26T13:20:30.210Z,55.44
2019-04-26T13:22:45.367Z,56.16
2019-04-26T13:24:40.844Z,56.91
2019-04-26T13:26:44.768Z,57.62
2019-04-26T13:28:52.457Z,58.26
2019-04-26T13:30:55.142Z,58.49
2019-04-26T13:32:59.959Z,58.52
2019-04-26T13:35:07.120Z,58.76
2019-04-26T13:37:09.479Z,58.83
2019-04-26T13:39:17.314Z,58.91
2019-04-26T13:41:18.933Z,59.26
2019-04-26T13:43:26.911Z,59.77
2019-04-26T13:45:49.913Z,60.17
2019-04-26T13:48:15.895Z,60.26
2019-04-26T13:50:29.287Z,60.62
2019-04-26T13:52:34.089Z,60.98
2019-04-26T13:54:38.974Z,61.25
2019-04-26T13:56:42.809Z,61.07
2019-04-26T13:58:46.613Z,61.46
2019-04-26T14:00:50.432Z,61.86
2019-04-26T14:02:54.213Z,61.94
2019-04-26T14:04:58.938Z,62.00
2019-04-26T14:07:02.769Z,62.12
2019-04-26T14:09:08.737Z,62.14
2019-04-26T14:11:12.532Z,62.30
2019-04-26T14:13:16.303Z,62.26
2019-04-26T14:15:20.190Z,64.72
2019-04-26T14:17:26.026Z,65.22
2019-04-26T14:19:31.533Z,65.58
2019-04-26T14:21:35.311Z,65.67
2019-04-26T14:24:05.175Z,65.87
2019-04-26T14:26:12.234Z,66.60
2019-04-26T14:28:20.386Z,67.37
2019-04-26T14:30:22.572Z,67.63
2019-04-26T14:32:27.320Z,67.66
2019-04-26T14:34:31.111Z,67.86
2019-04-26T14:36:34.915Z,68.89
2019-04-26T14:38:40.083Z,69.38
2019-04-26T14:40:45.557Z,69.72
2019-04-26T14:42:49.540Z,70.36
2019-04-26T14:44:54.232Z,70.66
2019-04-26T14:46:59.041Z,70.67
2019-04-26T14:49:05.694Z,71.01
2019-04-26T14:51:12.094Z,71.37
2019-04-26T14:53:14.041Z,71.70
2019-04-26T14:55:21.297Z,72.16
2019-04-26T14:57:28.981Z,72.93
2019-04-26T14:59:46.955Z,73.42
2019-04-26T15:01:59.161Z,73.47
2019-04-26T15:04:20.950Z,73.52
2019-04-26T15:06:28.796Z,73.31
2019-04-26T15:08:34.120Z,73.05
2019-04-26T15:10:45.821Z,73.33
2019-04-26T15:12:46.957Z,73.29
2019-04-26T15:14:53.785Z,73.08
2019-04-26T15:16:55.745Z,73.11
2019-04-26T15:18:59.483Z,72.86
2019-04-26T15:21:05.391Z,72.99
2019-04-26T15:23:13.131Z,73.02
2019-04-26T15:25:16.728Z,72.91
2019-04-26T15:27:20.519Z,72.75
2019-04-26T15:29:27.027Z,72.82
2019-04-26T15:31:29.879Z,72.72
2019-04-26T15:33:36.047Z,72.65
2019-04-26T15:35:40.033Z,72.86
2019-04-26T15:37:44.766Z,72.59
2019-04-26T15:40:08.520Z,72.52
2019-04-26T15:42:29.220Z,72.37
2019-04-26T15:44:41.363Z,72.28
2019-04-26T15:47:08.091Z,72.08
2019-04-26T15:49:37.387Z,72.21
2019-04-26T15:51:42.674Z,72.29
2019-04-26T15:53:48.749Z,72.04
2019-04-26T15:55:52.497Z,72.12
2019-04-26T15:57:56.276Z,72.24
2019-04-26T16:00:03.995Z,72.02
2019-04-26T16:02:07.706Z,71.57
2019-04-26T16:04:17.366Z,71.29
2019-04-26T16:06:25.935Z,71.28
2019-04-26T16:08:33.899Z,70.97
2019-04-26T16:10:38.379Z,70.85
2019-04-26T16:12:42.247Z,70.93
2019-04-26T16:14:46.153Z,70.32
2019-04-26T16:16:52.450Z,69.93
2019-04-26T16:18:57.296Z,70.16
2019-04-26T16:21:01.970Z,69.83
2019-04-26T16:23:08.853Z,69.68
2019-04-26T16:25:13.937Z,69.59
2019-04-26T16:27:17.679Z,69.64
2019-04-26T16:29:33.301Z,69.58
2019-04-26T16:31:48.350Z,69.47
2019-04-26T16:33:54.885Z,69.42
2019-04-26T16:36:02.702Z,69.42
2019-04-26T16:38:23.088Z,69.20
2019-04-26T16:40:26.894Z,69.42
2019-04-26T16:42:31.708Z,69.25
2019-04-26T16:44:35.512Z,69.39
2019-04-26T16:46:39.340Z,69.02
2019-04-26T16:48:44.508Z,69.17
2019-04-26T16:50:48.378Z,68.99
2019-04-26T16:52:52.168Z,69.03
2019-04-26T16:55:02.469Z,69.01
2019-04-26T16:57:06.545Z,68.96
2019-04-26T16:59:07.041Z,68.90
2019-04-26T17:01:14.949Z,68.69
2019-04-26T17:03:18.358Z,68.47
2019-04-26T17:05:44.005Z,68.44
2019-04-26T17:07:29.715Z,68.40
2019-04-26T17:09:54.799Z,68.22
2019-04-26T17:11:41.403Z,67.96
2019-04-26T17:13:50.569Z,68.00
2019-04-26T17:15:51.965Z,68.03
2019-04-26T17:17:56.734Z,67.98
2019-04-26T17:20:02.493Z,67.88
2019-04-26T17:22:40.031Z,67.64
2019-04-26T17:24:53.386Z,67.64
2019-04-26T17:27:00.419Z,67.39
2019-04-26T17:29:06.312Z,67.25
2019-04-26T17:31:10.143Z,67.25
2019-04-26T17:33:13.929Z,67.19
2019-04-26T17:35:17.749Z,67.12
2019-04-26T17:37:25.775Z,66.84
2019-04-26T17:39:27.113Z,66.75
2019-04-26T17:41:33.272Z,66.72
2019-04-26T17:43:42.300Z,66.57
2019-04-26T17:45:44.194Z,66.60
2019-04-26T17:47:50.685Z,66.54
2019-04-26T17:49:57.459Z,66.73
2019-04-26T17:52:01.900Z,66.78
2019-04-26T17:54:33.834Z,67.02
2019-04-26T17:56:13.405Z,67.28
2019-04-26T17:58:29.109Z,67.44
2019-04-26T18:00:27.012Z,67.59
2019-04-26T18:02:41.228Z,67.74
2019-04-26T18:04:40.512Z,67.73
2019-04-26T18:06:46.909Z,67.78
2019-04-26T18:08:52.805Z,67.84
2019-04-26T18:10:55.690Z,67.87
2019-04-26T18:13:00.461Z,67.91
2019-04-26T18:15:09.379Z,67.99
2019-04-26T18:17:19.210Z,67.93
2019-04-26T18:19:35.798Z,67.86
2019-04-26T18:21:59.911Z,67.78
2019-04-26T18:24:02.950Z,67.73
2019-04-26T18:26:06.753Z,67.83
2019-04-26T18:28:13.249Z,67.86
2019-04-26T18:30:16.440Z,68.09
2019-04-26T18:32:21.525Z,68.10
2019-04-26T18:34:25.827Z,68.11
2019-04-26T18:36:31.979Z,68.20
2019-04-26T18:38:35.223Z,68.28
2019-04-26T18:40:57.150Z,68.19
2019-04-26T18:42:44.448Z,68.10
2019-04-26T18:44:48.943Z,68.08
2019-04-26T18:47:04.479Z,67.98
2019-04-26T18:49:11.339Z,67.96
2019-04-26T18:51:14.810Z,67.90
2019-04-26T18:53:48.094Z,67.91
2019-04-26T18:55:53.942Z,67.95
2019-04-26T18:58:01.668Z,67.92
2019-04-26T19:00:06.751Z,67.86
2019-04-26T19:02:11.388Z,67.87
2019-04-26T19:04:16.136Z,67.93
2019-04-26T19:06:29.788Z,67.91
2019-04-26T19:08:27.171Z,68.03
2019-04-26T19:10:34.158Z,68.08
2019-04-26T19:12:37.615Z,68.07
2019-04-26T19:15:07.167Z,68.01
2019-04-26T19:17:40.983Z,67.96
2019-04-26T19:19:57.161Z,67.88
2019-04-26T19:22:03.408Z,67.83
2019-04-26T19:24:11.934Z,67.92
2019-04-26T19:26:13.653Z,67.94
2019-04-26T19:28:18.050Z,67.94
2019-04-26T19:30:22.259Z,68.03
2019-04-26T19:32:26.203Z,68.10
2019-04-26T19:34:30.380Z,68.17
2019-04-26T19:36:35.031Z,68.23
2019-04-26T19:38:38.881Z,68.27
2019-04-26T19:40:46.370Z,68.23
2019-04-26T19:42:51.998Z,68.26
2019-04-26T19:45:09.519Z,68.28
2019-04-26T19:47:09.237Z,68.36
2019-04-26T19:49:36.782Z,68.42
2019-04-26T19:52:00.524Z,68.39
2019-04-26T19:54:23.235Z,68.30
2019-04-26T19:56:42.443Z,68.52
2019-04-26T19:58:50.703Z,68.57
2019-04-26T20:00:53.097Z,68.61
2019-04-26T20:02:56.872Z,68.83
2019-04-26T20:05:02.445Z,68.92
2019-04-26T20:07:06.366Z,69.07
2019-04-26T20:09:11.885Z,69.19
2019-04-26T20:11:18.709Z,69.20
2019-04-26T20:13:22.519Z,69.21
2019-04-26T20:15:28.645Z,69.26
2019-04-26T20:17:31.805Z,69.42
2019-04-26T20:19:37.573Z,69.56
2019-04-26T20:21:41.458Z,69.50
2019-04-26T20:23:47.436Z,69.78
2019-04-26T20:25:53.080Z,69.82
2019-04-26T20:27:59.785Z,69.81
2019-04-26T20:30:03.449Z,69.79
2019-04-26T20:32:26.317Z,69.79
2019-04-26T20:34:32.126Z,69.88
2019-04-26T20:36:40.641Z,69.88
2019-04-26T20:38:45.728Z,69.98
2019-04-26T20:40:47.672Z,69.96
2019-04-26T20:42:57.291Z,70.21
2019-04-26T20:44:58.117Z,70.29
2019-04-26T20:47:03.401Z,70.52
2019-04-26T20:49:09.077Z,70.79
2019-04-26T20:51:12.774Z,70.74
2019-04-26T20:53:16.595Z,70.75
2019-04-26T20:55:25.257Z,70.69
2019-04-26T20:57:30.468Z,70.61
2019-04-26T20:59:39.363Z,70.54
2019-04-26T21:01:46.460Z,70.59
2019-04-26T21:03:48.806Z,70.44
2019-04-26T21:05:58.856Z,70.53
2019-04-26T21:07:58.242Z,70.58
2019-04-26T21:10:02.159Z,70.58
2019-04-26T21:12:07.437Z,70.89
2019-04-26T21:14:12.327Z,71.04
2019-04-26T21:16:16.327Z,70.90
2019-04-26T21:18:21.136Z,70.95
2019-04-26T21:20:27.652Z,70.89
2019-04-26T21:22:32.271Z,70.87
2019-04-26T21:24:38.451Z,71.26
2019-04-26T21:27:02.743Z,71.48
2019-04-26T21:29:24.132Z,71.75
2019-04-26T21:31:32.772Z,71.73
2019-04-26T21:33:47.629Z,71.47
2019-04-26T21:36:10.343Z,71.43
2019-04-26T21:38:29.727Z,71.39
2019-04-26T21:40:34.970Z,71.31
2019-04-26T21:42:38.790Z,71.38
2019-04-26T21:44:44.706Z,71.33
2019-04-26T21:46:49.689Z,71.33
2019-04-26T21:48:53.679Z,71.29
2019-04-26T21:50:57.445Z,71.26
2019-04-26T21:53:04.388Z,71.23
2019-04-26T21:55:07.092Z,71.25
2019-04-26T21:57:11.180Z,71.38
2019-04-26T21:59:14.921Z,71.48
2019-04-26T22:01:24.837Z,71.48
2019-04-26T22:03:29.038Z,71.45
2019-04-26T22:05:35.271Z,71.43
2019-04-26T22:07:43.766Z,71.44
2019-04-26T22:10:05.139Z,71.83
2019-04-26T22:12:13.154Z,71.90
2019-04-26T22:14:23.532Z,71.87
2019-04-26T22:16:42.678Z,71.87
2019-04-26T22:18:58.037Z,71.94
2019-04-26T22:21:10.579Z,71.98
2019-04-26T22:23:36.409Z,72.06
2019-04-26T22:25:46.651Z,71.90
2019-04-26T22:27:54.024Z,71.97
2019-04-26T22:29:56.058Z,71.90
2019-04-26T22:31:59.892Z,71.88
2019-04-26T22:34:07.349Z,71.90
2019-04-26T22:36:09.467Z,71.75
2019-04-26T22:38:13.246Z,71.76
2019-04-26T22:40:19.680Z,71.79
2019-04-26T22:42:23.986Z,71.84
2019-04-26T22:44:50.285Z,71.75
2019-04-26T22:47:14.765Z,71.66
2019-04-26T22:49:19.659Z,71.77
2019-04-26T22:51:24.500Z,71.72
2019-04-26T22:53:28.311Z,71.70
2019-04-26T22:55:33.439Z,71.74
2019-04-26T22:57:37.299Z,71.65
2019-04-26T22:59:45.615Z,71.64
2019-04-26T23:01:48.853Z,71.78
2019-04-26T23:03:53.242Z,71.67
2019-04-26T23:05:59.188Z,71.68
2019-04-26T23:08:03.397Z,71.76
2019-04-26T23:10:09.406Z,71.78
2019-04-26T23:12:30.957Z,71.74
2019-04-26T23:14:48.253Z,71.81
2019-04-26T23:17:17.448Z,71.83
2019-04-26T23:19:33.528Z,71.92
2019-04-26T23:21:45.498Z,72.00
2019-04-26T23:23:45.806Z,72.08
2019-04-26T23:25:50.563Z,72.07
2019-04-26T23:27:58.251Z,72.11
2019-04-26T23:30:00.916Z,72.08
2019-04-26T23:32:05.805Z,72.07
2019-04-26T23:34:09.543Z,71.96
2019-04-26T23:36:13.734Z,71.87
2019-04-26T23:38:17.465Z,71.78
2019-04-26T23:40:25.674Z,71.69
2019-04-26T23:42:27.998Z,71.68
2019-04-26T23:44:33.119Z,71.60
2019-04-26T23:46:37.080Z,71.57
2019-04-26T23:48:42.729Z,71.55
2019-04-26T23:50:47.464Z,71.46
2019-04-26T23:52:52.952Z,71.41
2019-04-26T23:54:57.807Z,71.39
2019-04-26T23:57:02.885Z,71.31
2019-04-26T23:59:06.644Z,71.31
